Surface/Precipitation History
02/08/2018 18:23  to  2/9/2018 18:23
Change End Date:
Date/Time
(MDT)
Sf
Temp Chem Water Layer Surface Precipitation
Sfc Pvt Sub Frz Factor Pct Dpth DpthThk IcePct Cond Salin FI Type Intens Accum Rate
02/09/2018 18:20 Error -0.4F - 23F - - - - - - 1 mhos 796 - None None - -
02/09/2018 18:19 Error -0.4F - 23F - - - - - - 1 mhos 798 - None None - -
02/09/2018 18:10 Error 0.0F - 23F - - - - - - 1 mhos 784 - None None - -
02/09/2018 18:04 Error 0.3F - 23F - - - - - - 1 mhos 781 - None None - -
02/09/2018 18:00 Error 0.5F - 23F - - - - - - 1 mhos 777 - None None - -
02/09/2018 17:50 Error 1.2F - 23F - - - - - - 1 mhos 767 - None None - -
02/09/2018 17:49 Error 1.2F - 23F - - - - - - 1 mhos 767 - None None - -
02/09/2018 17:40 Error 2.3F - 23F - - - - - - 1 mhos 744 - None None - -
02/09/2018 17:34 Error 2.7F - 23F - - - - - - 1 mhos 733 - None None - -
02/09/2018 17:30 Error 3.0F - 23F - - - - - - 1 mhos 727 - None None - -
02/09/2018 17:20 Error 3.7F - 23F - - - - - - 1 mhos 710 - None None - -
02/09/2018 17:19 Error 3.7F - 23F - - - - - - 1 mhos 710 - None None - -
02/09/2018 17:10 Error 4.3F - 23F - - - - - - 1 mhos 703 - None None - -
02/09/2018 17:04 Error 4.3F - 23F - - - - - - 1 mhos 703 - None None - -
02/09/2018 16:59 Error 4.5F - 23F - - - - - - 1 mhos 693 - None None - -
Date/Time
(MDT)
Sf
Temp Chem Water Layer Surface Precipitation
Sfc Pvt Sub Frz Factor Pct Dpth DpthThk IcePct Cond Salin FI Type Intens Accum Rate
02/09/2018 16:49 Error 5.4F - 23F - - - - - - 1 mhos 683 - None None - -
02/09/2018 16:49 Error 5.4F - 23F - - - - - - 1 mhos 683 - None None - -
02/09/2018 16:39 Error 6.1F - 23F - - - - - - 1 mhos 669 - None None - -
02/09/2018 16:34 Error 6.3F - 23F - - - - - - 1 mhos 674 - None None - -
02/09/2018 16:29 Error 6.6F - 23F - - - - - - 1 mhos 669 - None None - -
02/09/2018 16:19 Error 7.2F - 23F - - - - - - 1 mhos 661 - None None - -
02/09/2018 16:19 Error 7.2F - 23F - - - - - - 1 mhos 661 - None None - -
02/09/2018 16:09 Error 7.7F - 23F - - - - - - 1 mhos 658 - None None - -
02/09/2018 16:04 Error 7.9F - 23F - - - - - - 1 mhos 667 - None None - -
02/09/2018 15:59 Error 8.1F - 23F - - - - - - 1 mhos 654 - None None - -
02/09/2018 15:49 Error 8.8F - 23F - - - - - - 1 mhos 647 - None None - -
02/09/2018 15:49 Error 8.8F - 23F - - - - - - 1 mhos 647 - None None - -
02/09/2018 15:39 Error 9.1F - 23F - - - - - - 1 mhos 656 - None None - -
02/09/2018 15:34 Error 9.5F - 23F - - - - - - 1 mhos 649 - None None - -
02/09/2018 15:29 Error 9.7F - 23F - - - - - - 1 mhos 661 - None None - -
Date/Time
(MDT)
Sf
Temp Chem Water Layer Surface Precipitation
Sfc Pvt Sub Frz Factor Pct Dpth DpthThk IcePct Cond Salin FI Type Intens Accum Rate
02/09/2018 15:19 Error 10.0F - 23F - - - - - - 1 mhos 667 - None None - -
02/09/2018 15:19 Error 10.0F - 23F - - - - - - 1 mhos 667 - None None - -
02/09/2018 15:09 Error 10.2F - 23F - - - - - - 1 mhos 655 - None None - -
02/09/2018 15:04 Error 10.4F - 23F - - - - - - 1 mhos 653 - None None - -
02/09/2018 14:59 Error 10.4F - 23F - - - - - - 1 mhos 667 - None None - -
02/09/2018 14:49 Error 10.8F - 23F - - - - - - 1 mhos 661 - None None - -
02/09/2018 14:49 Error 10.8F - 23F - - - - - - 1 mhos 661 - None None - -
02/09/2018 14:39 Error 11.1F - 23F - - - - - - 1 mhos 667 - None None - -
02/09/2018 14:34 Error 11.1F - 23F - - - - - - 1 mhos 667 - None None - -
02/09/2018 14:29 Error 11.1F - 23F - - - - - - 1 mhos 670 - None None - -
02/09/2018 14:19 Error 11.3F - 23F - - - - - - 1 mhos 655 - None None - -
02/09/2018 14:18 Error 11.3F - 23F - - - - - - 1 mhos 655 - None None - -
02/09/2018 14:08 Error 11.5F - 23F - - - - - - 1 mhos 665 - None None - -
02/09/2018 14:04 Error 11.5F - 23F - - - - - - 1 mhos 665 - None None - -
02/09/2018 13:58 Error 11.5F - 23F - - - - - - 1 mhos 665 - None None - -
Date/Time
(MDT)
Sf
Temp Chem Water Layer Surface Precipitation
Sfc Pvt Sub Frz Factor Pct Dpth DpthThk IcePct Cond Salin FI Type Intens Accum Rate
02/09/2018 13:49 Error 11.5F - 23F - - - - - - 1 mhos 657 - None None - -
02/09/2018 13:48 Error 11.5F - 23F - - - - - - 1 mhos 657 - None None - -
02/09/2018 13:38 Error 11.5F - 23F - - - - - - 1 mhos 661 - None None - -
02/09/2018 13:34 Error 11.5F - 23F - - - - - - 1 mhos 657 - None None - -
02/09/2018 13:28 Error 11.5F - 23F - - - - - - 1 mhos 657 - None None - -
02/09/2018 13:19 Error 11.5F - 23F - - - - - - 1 mhos 654 - None None - -
02/09/2018 13:18 Error 11.5F - 23F - - - - - - 1 mhos 654 - None None - -
02/09/2018 13:08 Error 11.3F - 23F - - - - - - 1 mhos 658 - None None - -
02/09/2018 13:04 Error 11.3F - 23F - - - - - - 1 mhos 646 - None None - -
02/09/2018 12:58 Error 11.1F - 23F - - - - - - 1 mhos 655 - None None - -
02/09/2018 12:49 Error 10.9F - 23F - - - - - - 1 mhos 660 - None None - -
02/09/2018 12:48 Error 10.9F - 23F - - - - - - 1 mhos 660 - None None - -
02/09/2018 12:38 Error 10.8F - 23F - - - - - - 1 mhos 654 - None None - -
02/09/2018 12:34 Error 10.6F - 23F - - - - - - 1 mhos 662 - None None - -
02/09/2018 12:28 Error 10.4F - 23F - - - - - - 1 mhos 652 - None None - -
Date/Time
(MDT)
Sf
Temp Chem Water Layer Surface Precipitation
Sfc Pvt Sub Frz Factor Pct Dpth DpthThk IcePct Cond Salin FI Type Intens Accum Rate
02/09/2018 12:19 Error 10.2F - 23F - - - - - - 1 mhos 653 - None None - -
02/09/2018 12:18 Error 10.2F - 23F - - - - - - 1 mhos 643 - None None - -
02/09/2018 12:08 Error 9.9F - 23F - - - - - - 1 mhos 655 - Yes Heavy - -
02/09/2018 12:04 Error 9.7F - 23F - - - - - - 1 mhos 653 - None None - -
02/09/2018 11:58 Error 9.5F - 23F - - - - - - 1 mhos 648 - None None - -
02/09/2018 11:49 Error 9.3F - 23F - - - - - - 1 mhos 647 - None None - -
02/09/2018 11:48 Error 9.1F - 23F - - - - - - 1 mhos 655 - None None - -
02/09/2018 11:37 Error 9.0F - 23F - - - - - - 1 mhos 647 - None None - -
02/09/2018 11:34 Error 8.8F - 23F - - - - - - 1 mhos 646 - None None - -
02/09/2018 11:27 Error 8.6F - 24F - - - - - - 1 mhos 654 - None None - -
02/09/2018 11:19 Error 8.2F - 23F - - - - - - 1 mhos 653 - None None - -
02/09/2018 11:17 Error 8.1F - 24F - - - - - - 1 mhos 652 - None None - -
02/09/2018 11:07 Error 7.9F - 23F - - - - - - 1 mhos 660 - None None - -
02/09/2018 11:04 Error 7.9F - 24F - - - - - - 1 mhos 657 - None None - -
02/09/2018 10:57 Error 7.7F - 24F - - - - - - 1 mhos 646 - None None - -
Date/Time
(MDT)
Sf
Temp Chem Water Layer Surface Precipitation
Sfc Pvt Sub Frz Factor Pct Dpth DpthThk IcePct Cond Salin FI Type Intens Accum Rate
02/09/2018 10:49 Error 7.3F - 24F - - - - - - 1 mhos 654 - None None - -
02/09/2018 10:47 Error 7.2F - 24F - - - - - - 1 mhos 654 - None None - -
02/09/2018 10:37 Error 7.0F - 24F - - - - - - 1 mhos 658 - None None - -
02/09/2018 10:34 Error 6.6F - 24F - - - - - - 1 mhos 661 - None None - -
02/09/2018 10:27 Error 6.3F - 24F - - - - - - 1 mhos 664 - None None - -
02/09/2018 10:19 Error 6.1F - 24F - - - - - - 1 mhos 671 - None None - -
02/09/2018 10:17 Error 6.1F - 24F - - - - - - 1 mhos 663 - None None - -
02/09/2018 10:07 Error 5.7F - 24F - - - - - - 1 mhos 665 - None None - -
02/09/2018 10:04 Error 5.5F - 24F - - - - - - 1 mhos 663 - None None - -
02/09/2018 09:57 Error 5.4F - 24F - - - - - - 1 mhos 658 - None None - -
02/09/2018 09:49 Error 5.0F - 24F - - - - - - 1 mhos 666 - None None - -
02/09/2018 09:47 Error 4.8F - 24F - - - - - - 1 mhos 668 - None None - -
02/09/2018 09:37 Error 4.6F - 24F - - - - - - 1 mhos 667 - None None - -
02/09/2018 09:34 Error 4.6F - 24F - - - - - - 1 mhos 665 - None None - -
02/09/2018 09:27 Error 4.6F - 24F - - - - - - 1 mhos 665 - None None - -
Date/Time
(MDT)
Sf
Temp Chem Water Layer Surface Precipitation
Sfc Pvt Sub Frz Factor Pct Dpth DpthThk IcePct Cond Salin FI Type Intens Accum Rate
02/09/2018 09:19 Error 4.5F - 24F - - - - - - 1 mhos 665 - None None - -
02/09/2018 09:17 Error 4.6F - 24F - - - - - - 1 mhos 656 - None None - -
02/09/2018 09:07 Error 4.6F - 24F - - - - - - 1 mhos 668 - None None - -
02/09/2018 09:04 Error 4.8F - 24F - - - - - - 1 mhos 655 - None None - -
02/09/2018 08:57 Error 5.2F - 24F - - - - - - 1 mhos 654 - None None - -
02/09/2018 08:49 Error 5.4F - 24F - - - - - - 1 mhos 641 - None None - -
02/09/2018 08:46 Error 5.4F - 24F - - - - - - 1 mhos 654 - None None - -
02/09/2018 08:36 Error 5.9F - 24F - - - - - - 1 mhos 634 - None None - -
02/09/2018 08:34 Error 5.9F - 24F - - - - - - 1 mhos 641 - None None - -
02/09/2018 08:26 Error 6.3F - 24F - - - - - - 1 mhos 637 - None None - -
02/09/2018 08:19 Error 6.6F - 24F - - - - - - 1 mhos 627 - None None - -
02/09/2018 08:16 Error 6.8F - 24F - - - - - - 1 mhos 622 - None None - -
02/09/2018 08:06 Error 7.2F - 24F - - - - - - 1 mhos 615 - None None - -
02/09/2018 08:04 Error 7.2F - 24F - - - - - - 1 mhos 615 - None None - -
02/09/2018 07:56 Error 7.5F - 24F - - - - - - 1 mhos 614 - None None - -
Date/Time
(MDT)
Sf
Temp Chem Water Layer Surface Precipitation
Sfc Pvt Sub Frz Factor Pct Dpth DpthThk IcePct Cond Salin FI Type Intens Accum Rate
02/09/2018 07:49 Error 7.7F - 24F - - - - - - 1 mhos 606 - None None - -
02/09/2018 07:46 Error 7.9F - 24F - - - - - - 1 mhos 608 - Yes Heavy - -
02/09/2018 07:36 Error 8.2F - 24F - - - - - - 1 mhos 600 - Yes Heavy - -
02/09/2018 07:34 Error 8.2F - 24F - - - - - - 1 mhos 603 - Yes Heavy - -
02/09/2018 07:26 Error 8.6F - 24F - - - - - - 1 mhos 602 - Yes Heavy - -
02/09/2018 07:19 Error 8.8F - 24F - - - - - - 1 mhos 592 - Yes Heavy - -
02/09/2018 07:16 Error 8.8F - 24F - - - - - - 1 mhos 593 - Yes Heavy - -
02/09/2018 07:06 Error 9.0F - 24F - - - - - - 1 mhos 591 - Yes Heavy - -
02/09/2018 07:04 Error 9.0F - 24F - - - - - - 1 mhos 591 - Yes Heavy - -
02/09/2018 06:56 Error 9.0F - 24F - - - - - - 1 mhos 596 - Yes Heavy - -
02/09/2018 06:49 Error 9.1F - 24F - - - - - - 1 mhos 591 - Yes Heavy - -
02/09/2018 06:46 Error 9.3F - 24F - - - - - - 1 mhos 591 - Yes Heavy - -
02/09/2018 06:36 Error 9.7F - 24F - - - - - - 1 mhos 590 - Yes Heavy - -
02/09/2018 06:34 Error 9.9F - 24F - - - - - - 1 mhos 587 - Yes Heavy - -
02/09/2018 06:26 Error 10.8F - 24F - - - - - - 1 mhos 588 - Yes Heavy - -
Date/Time
(MDT)
Sf
Temp Chem Water Layer Surface Precipitation
Sfc Pvt Sub Frz Factor Pct Dpth DpthThk IcePct Cond Salin FI Type Intens Accum Rate
02/09/2018 06:19 Error 10.8F - 24F - - - - - - 1 mhos 582 - Yes Heavy - -
02/09/2018 06:16 Error 10.8F - 24F - - - - - - 1 mhos 585 - None None - -
02/09/2018 06:05 Error 10.8F - 24F - - - - - - 1 mhos 588 - Yes Heavy - -
02/09/2018 06:04 Error 10.8F - 24F - - - - - - 1 mhos 588 - None None - -
02/09/2018 05:55 Error 10.8F - 24F - - - - - - 1 mhos 588 - Yes Heavy - -
02/09/2018 05:49 Error 10.8F - 24F - - - - - - 1 mhos 584 - Yes Heavy - -
02/09/2018 05:45 Error 10.8F - 24F - - - - - - 1 mhos 585 - None None - -
02/09/2018 05:35 Error 10.8F - 24F - - - - - - 1 mhos 585 - Yes Heavy - -
02/09/2018 05:34 Error 10.9F - 24F - - - - - - 1 mhos 578 - None None - -
02/09/2018 05:25 Error 10.9F - 24F - - - - - - 1 mhos 574 - None None - -
02/09/2018 05:19 Error 10.9F - 24F - - - - - - 1 mhos 583 - None None - -
02/09/2018 05:15 Error 10.9F - 24F - - - - - - 1 mhos 583 - None None - -
02/09/2018 05:05 Error 10.9F - 24F - - - - - - 1 mhos 574 - None None - -
02/09/2018 05:04 Error 10.9F - 24F - - - - - - 1 mhos 575 - None None - -
02/09/2018 04:55 Error 10.9F - 24F - - - - - - 1 mhos 580 - None None - -
Date/Time
(MDT)
Sf
Temp Chem Water Layer Surface Precipitation
Sfc Pvt Sub Frz Factor Pct Dpth DpthThk IcePct Cond Salin FI Type Intens Accum Rate
02/09/2018 04:49 Error 10.9F - 24F - - - - - - 1 mhos 580 - None None - -
02/09/2018 04:45 Error 10.9F - 24F - - - - - - 1 mhos 580 - None None - -
02/09/2018 04:35 Error 10.9F - 24F - - - - - - 1 mhos 580 - Yes Heavy - -
02/09/2018 04:34 Error 10.9F - 24F - - - - - - 1 mhos 583 - Yes Heavy - -
02/09/2018 04:25 Error 10.9F - 24F - - - - - - 1 mhos 580 - Yes Heavy - -
02/09/2018 04:19 Error 10.9F - 24F - - - - - - 1 mhos 574 - Yes Heavy - -
02/09/2018 04:15 Error 11.1F - 24F - - - - - - 1 mhos 568 - None None - -
02/09/2018 04:05 Error 11.1F - 24F - - - - - - 1 mhos 568 - None None - -
02/09/2018 04:04 Error 11.1F - 24F - - - - - - 1 mhos 568 - None None - -
02/09/2018 03:55 Error 10.9F - 24F - - - - - - 1 mhos 578 - Yes Heavy - -
02/09/2018 03:49 Error 11.1F - 24F - - - - - - 1 mhos 568 - Yes Heavy - -
02/09/2018 03:45 Error 11.1F - 24F - - - - - - 1 mhos 573 - Yes Heavy - -
02/09/2018 03:35 Error 11.1F - 24F - - - - - - 1 mhos 573 - Yes Heavy - -
02/09/2018 03:34 Error 11.1F - 24F - - - - - - 1 mhos 573 - Yes Heavy - -
02/09/2018 03:24 Error 11.1F - 24F - - - - - - 1 mhos 568 - None None - -
Date/Time
(MDT)
Sf
Temp Chem Water Layer Surface Precipitation
Sfc Pvt Sub Frz Factor Pct Dpth DpthThk IcePct Cond Salin FI Type Intens Accum Rate
02/09/2018 03:19 Error 11.1F - 24F - - - - - - 1 mhos 570 - None None - -
02/09/2018 03:14 Error 11.1F - 24F - - - - - - 1 mhos 568 - Yes Heavy - -
02/09/2018 03:04 Error 11.1F - 24F - - - - - - 1 mhos 570 - Yes Heavy - -
02/09/2018 03:04 Error 11.1F - 24F - - - - - - 1 mhos 570 - Yes Heavy - -
02/09/2018 02:54 Error 11.1F - 24F - - - - - - 1 mhos 570 - Yes Heavy - -
02/09/2018 02:49 Error 11.1F - 24F - - - - - - 1 mhos 573 - Yes Heavy - -
02/09/2018 02:44 Error 11.1F - 24F - - - - - - 1 mhos 564 - Yes Heavy - -
02/09/2018 02:34 Error 11.1F - 24F - - - - - - 1 mhos 573 - Yes Heavy - -
02/09/2018 02:34 Error 11.1F - 24F - - - - - - 1 mhos 573 - None None - -
02/09/2018 02:24 Error 11.1F - 24F - - - - - - 1 mhos 560 - None None - -
02/09/2018 02:19 Error 11.1F - 24F - - - - - - 1 mhos 560 - None None - -
02/09/2018 02:14 Error 11.1F - 24F - - - - - - 1 mhos 569 - None None - -
02/09/2018 02:04 Error 11.1F - 24F - - - - - - 1 mhos 563 - None None - -
02/09/2018 02:04 Error 11.1F - 24F - - - - - - 1 mhos 563 - None None - -
02/09/2018 01:54 Error 11.1F - 24F - - - - - - 1 mhos 565 - Yes Heavy - -
Date/Time
(MDT)
Sf
Temp Chem Water Layer Surface Precipitation
Sfc Pvt Sub Frz Factor Pct Dpth DpthThk IcePct Cond Salin FI Type Intens Accum Rate
02/09/2018 01:49 Error 11.1F - 24F - - - - - - 1 mhos 563 - Yes Heavy - -
02/09/2018 01:44 Error 11.1F - 24F - - - - - - 1 mhos 560 - Yes Heavy - -
02/09/2018 01:34 Error 11.1F - 24F - - - - - - 1 mhos 552 - Yes Heavy - -
02/09/2018 01:34 Error 11.1F - 24F - - - - - - 1 mhos 552 - Yes Heavy - -
02/09/2018 01:24 Error 11.1F - 24F - - - - - - 1 mhos 568 - None None - -
02/09/2018 01:19 Error 11.1F - 24F - - - - - - 1 mhos 565 - None None - -
02/09/2018 01:14 Error 11.1F - 24F - - - - - - 1 mhos 557 - None None - -
02/09/2018 01:04 Error 11.1F - 24F - - - - - - 1 mhos 563 - None None - -
02/09/2018 01:04 Error 11.1F - 24F - - - - - - 1 mhos 563 - None None - -
02/09/2018 00:54 Error 11.1F - 24F - - - - - - 1 mhos 563 - None None - -
02/09/2018 00:49 Error 11.1F - 24F - - - - - - 1 mhos 558 - None None - -
02/09/2018 00:44 Error 11.1F - 24F - - - - - - 1 mhos 557 - None None - -
02/09/2018 00:34 Error 11.3F - 24F - - - - - - 1 mhos 554 - None None - -
02/09/2018 00:33 Error 11.3F - 24F - - - - - - 1 mhos 556 - None None - -
02/09/2018 00:23 Error 11.3F - 24F - - - - - - 1 mhos 556 - None None - -
Date/Time
(MDT)
Sf
Temp Chem Water Layer Surface Precipitation
Sfc Pvt Sub Frz Factor Pct Dpth DpthThk IcePct Cond Salin FI Type Intens Accum Rate
02/09/2018 00:19 Error 11.3F - 24F - - - - - - 1 mhos 559 - None None - -
02/09/2018 00:13 Error 11.1F - 24F - - - - - - 1 mhos 560 - None None - -
02/09/2018 00:04 Error 11.1F - 24F - - - - - - 1 mhos 552 - None None - -
02/09/2018 00:03 Error 11.1F - 24F - - - - - - 1 mhos 552 - None None - -
02/08/2018 23:53 Error 11.1F - 24F - - - - - - 1 mhos 552 - None None - -
02/08/2018 23:49 Error 11.1F - 25F - - - - - - 1 mhos 544 - None None - -
02/08/2018 23:43 Error 11.1F - 24F - - - - - - 1 mhos 546 - None None - -
02/08/2018 23:34 Error 11.1F - 25F - - - - - - 1 mhos 549 - None None - -
02/08/2018 23:33 Error 11.1F - 24F - - - - - - 1 mhos 559 - None None - -
02/08/2018 23:23 Error 11.1F - 25F - - - - - - 1 mhos 553 - None None - -
02/08/2018 23:19 Error 11.3F - 25F - - - - - - 1 mhos 551 - None None - -
02/08/2018 23:13 Error 11.5F - 25F - - - - - - 1 mhos 549 - None None - -
02/08/2018 23:04 Error 11.7F - 24F - - - - - - 1 mhos 550 - None None - -
02/08/2018 23:03 Error 11.7F - 25F - - - - - - 1 mhos 556 - None None - -
02/08/2018 22:53 Error 12.0F - 25F - - - - - - 1 mhos 554 - None None - -
Date/Time
(MDT)
Sf
Temp Chem Water Layer Surface Precipitation
Sfc Pvt Sub Frz Factor Pct Dpth DpthThk IcePct Cond Salin FI Type Intens Accum Rate
02/08/2018 22:49 Error 12.2F - 25F - - - - - - 1 mhos 550 - None None - -
02/08/2018 22:43 Error 12.2F - 25F - - - - - - 1 mhos 562 - None None - -
02/08/2018 22:34 Error 12.4F - 25F - - - - - - 1 mhos 561 - None None - -
02/08/2018 22:33 Error 12.2F - 25F - - - - - - 1 mhos 566 - None None - -
02/08/2018 22:23 Error 12.6F - 25F - - - - - - 1 mhos 563 - None None - -
02/08/2018 22:19 Error 12.6F - 25F - - - - - - 1 mhos 564 - None None - -
02/08/2018 22:13 Error 12.6F - 25F - - - - - - 1 mhos 557 - None None - -
02/08/2018 22:04 Error 12.6F - 25F - - - - - - 1 mhos 563 - None None - -
02/08/2018 22:03 Error 12.6F - 25F - - - - - - 1 mhos 557 - None None - -
02/08/2018 21:52 Error 12.7F - 25F - - - - - - 1 mhos 553 - None None - -
02/08/2018 21:49 Error 12.7F - 25F - - - - - - 1 mhos 556 - None None - -
02/08/2018 21:42 Error 12.7F - 25F - - - - - - 1 mhos 556 - None None - -
02/08/2018 21:34 Error 12.7F - 25F - - - - - - 1 mhos 559 - None None - -
02/08/2018 21:32 Error 12.7F - 25F - - - - - - 1 mhos 559 - None None - -
02/08/2018 21:22 Error 12.7F - 25F - - - - - - 1 mhos 556 - None None - -
Date/Time
(MDT)
Sf
Temp Chem Water Layer Surface Precipitation
Sfc Pvt Sub Frz Factor Pct Dpth DpthThk IcePct Cond Salin FI Type Intens Accum Rate
02/08/2018 21:19 Error 12.9F - 25F - - - - - - 1 mhos 552 - None None - -
02/08/2018 21:12 Error 12.9F - 25F - - - - - - 1 mhos 558 - None None - -
02/08/2018 21:04 Error 12.9F - 25F - - - - - - 1 mhos 562 - Yes Heavy - -
02/08/2018 21:02 Error 12.9F - 25F - - - - - - 1 mhos 562 - Yes Heavy - -
02/08/2018 20:52 Error 12.9F - 25F - - - - - - 1 mhos 554 - Yes Heavy - -
02/08/2018 20:49 Error 12.9F - 25F - - - - - - 1 mhos 558 - None None - -
02/08/2018 20:42 Error 12.9F - 25F - - - - - - 1 mhos 561 - Yes Heavy - -
02/08/2018 20:34 Error 12.9F - 25F - - - - - - 1 mhos 548 - None None - -
02/08/2018 20:32 Error 12.9F - 25F - - - - - - 1 mhos 555 - None None - -
02/08/2018 20:22 Error 12.9F - 25F - - - - - - 1 mhos 555 - None None - -
02/08/2018 20:19 Error 12.9F - 25F - - - - - - 1 mhos 555 - None None - -
02/08/2018 20:12 Error 12.9F - 25F - - - - - - 1 mhos 557 - None None - -
02/08/2018 20:04 Error 12.9F - 25F - - - - - - 1 mhos 564 - None None - -
02/08/2018 20:02 Error 12.9F - 25F - - - - - - 1 mhos 564 - None None - -
02/08/2018 19:52 Error 13.1F - 25F - - - - - - 1 mhos 557 - None None - -
Date/Time
(MDT)
Sf
Temp Chem Water Layer Surface Precipitation
Sfc Pvt Sub Frz Factor Pct Dpth DpthThk IcePct Cond Salin FI Type Intens Accum Rate
02/08/2018 19:49 Error 13.1F - 25F - - - - - - 1 mhos 554 - None None - -
02/08/2018 19:42 Error 13.1F - 25F - - - - - - 1 mhos 557 - None None - -
02/08/2018 19:34 Error 13.1F - 25F - - - - - - 1 mhos 557 - None None - -
02/08/2018 19:32 Error 13.1F - 25F - - - - - - 1 mhos 551 - None None - -
02/08/2018 19:22 Error 13.1F - 25F - - - - - - 1 mhos 544 - None None - -
02/08/2018 19:19 Error 12.9F - 25F - - - - - - 1 mhos 560 - Yes Heavy - -
02/08/2018 19:12 Error 12.9F - 25F - - - - - - 1 mhos 552 - None None - -
02/08/2018 19:04 Error 12.9F - 25F - - - - - - 1 mhos 548 - None None - -
02/08/2018 19:01 Error 12.9F - 25F - - - - - - 1 mhos 552 - None None - -
02/08/2018 18:51 Error 12.9F - 25F - - - - - - 1 mhos 543 - None None - -
02/08/2018 18:49 Error 12.7F - 25F - - - - - - 1 mhos 544 - None None - -
02/08/2018 18:41 Error 12.6F - 25F - - - - - - 1 mhos 539 - Yes Heavy - -
02/08/2018 18:34 Error 12.4F - 25F - - - - - - 1 mhos 527 - Yes Heavy - -
02/08/2018 18:31 Error 12.2F - 25F - - - - - - 1 mhos 537 - None None - -
Change End Date:

Copyright © 1998-2015 Vaisala, Inc.
All Rights Reserved
Send comments about the data to:
SCAN Web ® is a registered trademark of Vaisala, Inc.
SCAN Web Version 6.0